createdAt,value
2017-11-12T00:01:21.827Z,83.10
2017-11-12T00:03:49.219Z,83.80
2017-11-12T00:08:56.540Z,83.90
2017-11-12T00:11:24.864Z,84.00
2017-11-12T00:13:52.417Z,83.70
2017-11-12T00:16:20.920Z,83.40
2017-11-12T00:18:48.648Z,83.00
2017-11-12T00:21:17.136Z,82.90
2017-11-12T00:23:45.770Z,82.50
2017-11-12T00:28:54.084Z,82.40
2017-11-12T00:31:22.705Z,82.60
2017-11-12T00:33:50.330Z,83.10
2017-11-12T00:36:18.037Z,84.30
2017-11-12T00:38:46.745Z,84.20
2017-11-12T00:41:15.190Z,84.40
2017-11-12T00:43:42.883Z,84.30
2017-11-12T00:46:10.672Z,83.90
2017-11-12T00:48:38.550Z,84.10
2017-11-12T00:51:06.239Z,84.20
2017-11-12T00:53:33.874Z,83.60
2017-11-12T00:56:01.507Z,84.50
2017-11-12T01:00:57.691Z,84.10
2017-11-12T01:03:25.326Z,84.00
2017-11-12T01:05:53.047Z,84.40
2017-11-12T01:08:21.628Z,84.70
2017-11-12T01:10:49.276Z,84.50
2017-11-12T01:13:16.956Z,84.50
2017-11-12T01:15:45.778Z,83.70
2017-11-12T01:18:13.424Z,84.60
2017-11-12T01:20:41.156Z,84.60
2017-11-12T01:23:08.772Z,84.90
2017-11-12T01:25:37.258Z,84.90
2017-11-12T01:28:04.944Z,84.50
2017-11-12T01:30:32.581Z,84.60
2017-11-12T01:33:01.195Z,84.10
2017-11-12T01:35:28.908Z,84.70
2017-11-12T01:37:56.563Z,84.00
2017-11-12T01:42:51.842Z,84.60
2017-11-12T01:45:19.466Z,84.10
2017-11-12T01:47:47.579Z,84.20
2017-11-12T01:50:16.045Z,84.40
2017-11-12T01:55:23.680Z,85.20
2017-11-12T01:57:52.157Z,85.80
2017-11-12T02:02:48.491Z,83.50
2017-11-12T02:05:17.091Z,83.30
2017-11-12T02:07:45.671Z,83.80
2017-11-12T02:12:41.005Z,83.70
2017-11-12T02:15:08.644Z,84.20
2017-11-12T02:20:03.994Z,83.60
2017-11-12T02:22:32.465Z,83.50
2017-11-12T02:25:00.156Z,83.70
2017-11-12T02:27:27.784Z,83.40
2017-11-12T02:32:23.966Z,84.20
2017-11-12T02:34:51.599Z,83.60
2017-11-12T02:37:19.222Z,83.90
2017-11-12T02:39:46.912Z,84.20
2017-11-12T02:42:15.503Z,84.10
2017-11-12T02:44:43.143Z,84.20
2017-11-12T02:47:11.812Z,84.20
2017-11-12T02:49:39.438Z,83.70
2017-11-12T02:52:07.064Z,83.90
2017-11-12T02:54:34.764Z,84.10
2017-11-12T02:57:02.377Z,86.10
2017-11-12T02:59:30.007Z,86.60
2017-11-12T03:01:57.711Z,85.70
2017-11-12T03:04:25.357Z,85.30
2017-11-12T03:06:52.999Z,85.60
2017-11-12T03:09:21.617Z,85.20
2017-11-12T03:11:49.246Z,85.60
2017-11-12T03:14:16.855Z,85.60
2017-11-12T03:16:44.551Z,85.50
2017-11-12T03:21:51.394Z,86.30
2017-11-12T03:24:19.020Z,87.10
2017-11-12T03:26:47.490Z,86.80
2017-11-12T03:29:16.127Z,86.30
2017-11-12T03:31:44.511Z,86.10
2017-11-12T03:34:12.140Z,86.20
2017-11-12T03:36:39.845Z,86.70
2017-11-12T03:39:07.480Z,87.00
2017-11-12T03:41:35.110Z,86.10
2017-11-12T03:44:03.667Z,86.10
2017-11-12T03:46:31.395Z,87.00
2017-11-12T03:48:59.420Z,87.80
2017-11-12T03:51:27.109Z,88.10
2017-11-12T03:53:54.750Z,87.70
2017-11-12T03:56:22.372Z,87.10
2017-11-12T03:58:50.065Z,86.60
2017-11-12T04:01:18.665Z,86.90
2017-11-12T04:03:46.280Z,86.40
2017-11-12T04:06:13.958Z,86.20
2017-11-12T04:11:09.209Z,85.90
2017-11-12T04:13:36.905Z,86.00
2017-11-12T04:16:04.529Z,86.40
2017-11-12T04:18:33.146Z,86.60
2017-11-12T04:21:00.837Z,86.60
2017-11-12T04:25:56.089Z,86.10
2017-11-12T04:28:24.797Z,85.40
2017-11-12T04:30:52.429Z,85.60
2017-11-12T04:33:20.055Z,85.10
2017-11-12T04:35:48.457Z,85.00
2017-11-12T04:38:16.074Z,85.00
2017-11-12T04:40:43.704Z,84.90
2017-11-12T04:43:11.408Z,84.40
2017-11-12T04:45:39.031Z,83.90
2017-11-12T04:50:46.665Z,84.30
2017-11-12T04:53:15.223Z,84.30
2017-11-12T04:55:42.860Z,84.50
2017-11-12T04:58:11.019Z,84.70
2017-11-12T05:00:39.641Z,85.00
2017-11-12T05:03:07.261Z,85.40
2017-11-12T05:05:34.949Z,84.70
2017-11-12T05:08:02.598Z,84.90
2017-11-12T05:10:30.240Z,83.70
2017-11-12T05:12:57.928Z,84.00
2017-11-12T05:15:25.562Z,84.10
2017-11-12T05:17:53.736Z,84.00
2017-11-12T05:20:21.415Z,84.10
2017-11-12T05:22:49.871Z,84.30
2017-11-12T05:25:18.045Z,85.20
2017-11-12T05:27:45.754Z,85.80
2017-11-12T05:30:13.415Z,85.20
2017-11-12T05:32:41.044Z,85.00
2017-11-12T05:35:08.734Z,85.00
2017-11-12T05:37:36.560Z,85.00
2017-11-12T05:40:04.075Z,85.10
2017-11-12T05:42:31.780Z,85.00
2017-11-12T05:44:59.404Z,85.00
2017-11-12T05:47:27.992Z,85.10
2017-11-12T05:49:55.688Z,85.00
2017-11-12T05:52:23.313Z,84.80
2017-11-12T05:54:51.865Z,84.80
2017-11-12T05:57:19.579Z,84.70
2017-11-12T05:59:48.562Z,84.90
2017-11-12T06:04:44.711Z,85.40
2017-11-12T06:09:52.336Z,84.30
2017-11-12T06:12:19.964Z,84.40
2017-11-12T06:17:16.126Z,83.60
2017-11-12T06:19:44.622Z,83.50
2017-11-12T06:22:12.233Z,84.10
2017-11-12T06:24:39.922Z,83.90
2017-11-12T06:27:08.390Z,83.70
2017-11-12T06:32:04.681Z,84.50
2017-11-12T06:34:32.322Z,84.40
2017-11-12T06:36:59.945Z,84.70
2017-11-12T06:39:27.651Z,84.30
2017-11-12T06:41:55.257Z,84.20
2017-11-12T06:44:22.895Z,84.30
2017-11-12T06:46:50.639Z,85.40
2017-11-12T06:49:18.276Z,86.60
2017-11-12T06:51:45.894Z,87.40
2017-11-12T06:54:13.590Z,87.50
2017-11-12T06:56:41.221Z,86.90
2017-11-12T06:59:08.853Z,86.70
2017-11-12T07:01:36.574Z,86.30
2017-11-12T07:04:04.202Z,85.90
2017-11-12T07:06:31.840Z,85.80
2017-11-12T07:08:59.550Z,85.70
2017-11-12T07:11:28.042Z,85.90
2017-11-12T07:13:56.508Z,86.50
2017-11-12T07:16:24.210Z,86.80
2017-11-12T07:18:51.879Z,87.00
2017-11-12T07:21:19.527Z,87.20
2017-11-12T07:23:47.260Z,87.00
2017-11-12T07:26:15.898Z,86.90
2017-11-12T07:28:43.809Z,86.80
2017-11-12T07:31:11.517Z,86.10
2017-11-12T07:36:18.301Z,85.60
2017-11-12T07:38:45.927Z,85.10
2017-11-12T07:41:13.579Z,85.10
2017-11-12T07:46:08.926Z,85.10
2017-11-12T07:48:36.562Z,84.60
2017-11-12T07:51:04.257Z,84.50
2017-11-12T07:53:31.894Z,84.60
2017-11-12T07:55:59.536Z,84.80
2017-11-12T08:00:54.882Z,85.80
2017-11-12T08:03:23.512Z,85.70
2017-11-12T08:05:51.156Z,86.40
2017-11-12T08:08:19.619Z,86.00
2017-11-12T08:10:48.190Z,87.20
2017-11-12T08:13:15.881Z,87.20
2017-11-12T08:15:43.508Z,86.20
2017-11-12T08:18:11.174Z,85.50
2017-11-12T08:20:38.874Z,85.40
2017-11-12T08:23:06.496Z,85.70
2017-11-12T08:25:34.143Z,85.90
2017-11-12T08:28:01.879Z,85.10
2017-11-12T08:30:29.525Z,84.60
2017-11-12T08:32:57.180Z,85.40
2017-11-12T08:35:24.881Z,85.70
2017-11-12T08:40:33.091Z,84.10
2017-11-12T08:43:00.734Z,84.10
2017-11-12T08:45:28.363Z,84.70
2017-11-12T08:47:56.049Z,85.10
2017-11-12T08:52:51.340Z,84.50
2017-11-12T08:55:19.849Z,84.30
2017-11-12T08:57:47.482Z,84.40
2017-11-12T09:00:15.098Z,84.60
2017-11-12T09:02:42.812Z,84.20
2017-11-12T09:05:10.429Z,84.80
2017-11-12T09:07:38.061Z,84.60
2017-11-12T09:10:05.744Z,84.00
2017-11-12T09:12:34.346Z,84.00
2017-11-12T09:15:01.975Z,84.00
2017-11-12T09:17:30.649Z,84.80
2017-11-12T09:19:58.286Z,84.10
2017-11-12T09:22:25.917Z,84.00
2017-11-12T09:24:53.609Z,85.40
2017-11-12T09:27:21.225Z,83.10
2017-11-12T09:29:49.807Z,82.70
2017-11-12T09:32:17.952Z,84.40
2017-11-12T09:37:13.202Z,85.40
2017-11-12T09:39:40.907Z,83.60
2017-11-12T09:42:09.341Z,83.00
2017-11-12T09:44:37.126Z,83.90
2017-11-12T09:47:04.693Z,84.30
2017-11-12T09:49:32.913Z,84.60
2017-11-12T09:52:00.547Z,84.80
2017-11-12T09:54:28.245Z,81.10
2017-11-12T09:56:56.405Z,81.70
2017-11-12T09:59:24.036Z,81.90
2017-11-12T10:01:52.688Z,82.60
2017-11-12T10:04:21.270Z,85.20
2017-11-12T10:09:25.060Z,82.90
2017-11-12T10:11:52.682Z,82.00
2017-11-12T10:14:20.314Z,82.80
2017-11-12T10:16:47.998Z,81.40
2017-11-12T10:19:15.893Z,83.60
2017-11-12T10:21:43.512Z,80.80
2017-11-12T10:24:11.226Z,82.40
2017-11-12T10:26:39.673Z,83.20
2017-11-12T10:29:07.286Z,82.30
2017-11-12T10:31:34.974Z,82.50
2017-11-12T10:34:02.607Z,82.40
2017-11-12T10:36:30.226Z,80.50
2017-11-12T10:41:25.561Z,81.30
2017-11-12T10:43:53.179Z,79.30
2017-11-12T10:46:20.866Z,76.90
2017-11-12T10:48:48.524Z,78.50
2017-11-12T10:51:16.136Z,78.20
2017-11-12T10:53:43.846Z,77.60
2017-11-12T10:56:11.477Z,79.10
2017-11-12T10:58:39.957Z,77.90
2017-11-12T11:01:07.648Z,77.10
2017-11-12T11:03:35.289Z,78.00
2017-11-12T11:06:02.918Z,76.90
2017-11-12T11:08:31.150Z,76.40
2017-11-12T11:10:58.781Z,77.20
2017-11-12T11:13:26.418Z,78.60
2017-11-12T11:15:54.112Z,78.10
2017-11-12T11:20:49.386Z,80.60
2017-11-12T11:23:17.068Z,79.30
2017-11-12T11:25:44.698Z,77.30
2017-11-12T11:28:12.345Z,77.80
2017-11-12T11:30:40.041Z,77.80
2017-11-12T11:35:48.955Z,78.50
2017-11-12T11:38:17.323Z,78.70
2017-11-12T11:40:44.965Z,77.50
2017-11-12T11:43:12.616Z,78.00
2017-11-12T11:45:40.507Z,79.20
2017-11-12T11:48:08.136Z,78.70
2017-11-12T11:50:35.851Z,80.00
2017-11-12T11:53:03.484Z,77.10
2017-11-12T11:55:31.215Z,78.20
2017-11-12T11:57:58.826Z,78.60
2017-11-12T12:00:26.459Z,78.80
2017-11-12T12:05:26.887Z,79.20
2017-11-12T12:07:54.873Z,78.20
2017-11-12T12:10:22.504Z,78.80
2017-11-12T12:12:50.202Z,79.10
2017-11-12T12:15:17.833Z,79.60
2017-11-12T12:17:45.481Z,79.50
2017-11-12T12:20:13.207Z,81.10
2017-11-12T12:22:40.838Z,83.30
2017-11-12T12:25:08.467Z,78.50
2017-11-12T12:27:36.174Z,78.80
2017-11-12T12:30:03.818Z,79.90
2017-11-12T12:32:31.958Z,79.60
2017-11-12T12:35:00.320Z,80.20
2017-11-12T12:37:27.950Z,79.20
2017-11-12T12:39:56.443Z,80.00
2017-11-12T12:42:24.154Z,79.40
2017-11-12T12:44:51.769Z,79.10
2017-11-12T12:47:19.388Z,78.60
2017-11-12T12:54:53.928Z,78.80
2017-11-12T12:57:21.556Z,78.30
2017-11-12T12:59:49.199Z,78.80
2017-11-12T13:02:16.902Z,78.60
2017-11-12T13:04:44.521Z,79.30
2017-11-12T13:07:12.642Z,77.90
2017-11-12T13:09:41.238Z,78.40
2017-11-12T13:12:08.845Z,77.90
2017-11-12T13:14:37.369Z,78.30
2017-11-12T13:17:05.537Z,79.10
2017-11-12T13:19:33.163Z,78.80
2017-11-12T13:22:00.802Z,79.10
2017-11-12T13:24:29.328Z,78.80
2017-11-12T13:26:56.971Z,78.60
2017-11-12T13:29:24.586Z,77.40
2017-11-12T13:31:52.300Z,78.50
2017-11-12T13:34:19.927Z,79.10
2017-11-12T13:36:47.550Z,78.30
2017-11-12T13:39:15.262Z,79.60
2017-11-12T13:41:43.706Z,79.10
2017-11-12T13:44:11.350Z,79.70
2017-11-12T13:46:39.030Z,80.20
2017-11-12T13:49:06.659Z,79.00
2017-11-12T13:51:34.310Z,79.30
2017-11-12T13:54:03.957Z,80.10
2017-11-12T13:56:31.584Z,80.20
2017-11-12T13:58:59.946Z,79.80
2017-11-12T14:01:27.645Z,78.30
2017-11-12T14:03:55.277Z,77.40
2017-11-12T14:06:22.914Z,79.30
2017-11-12T14:11:32.687Z,79.70
2017-11-12T14:14:00.373Z,78.90
2017-11-12T14:16:28.004Z,78.40
2017-11-12T14:18:56.490Z,78.40
2017-11-12T14:23:52.316Z,79.50
2017-11-12T14:26:19.965Z,80.40
2017-11-12T14:28:47.666Z,82.40
2017-11-12T14:31:15.331Z,80.80
2017-11-12T14:33:42.964Z,83.70
2017-11-12T14:36:11.514Z,78.00
2017-11-12T14:38:40.016Z,77.70
2017-11-12T14:41:07.850Z,77.90
2017-11-12T14:43:35.514Z,79.00
2017-11-12T14:46:03.144Z,79.50
2017-11-12T14:50:54.715Z,79.30
2017-11-12T14:53:23.162Z,80.70
2017-11-12T14:55:50.796Z,81.00
2017-11-12T15:00:46.136Z,82.00
2017-11-12T15:03:14.729Z,82.40
2017-11-12T15:05:42.429Z,80.80
2017-11-12T15:08:11.044Z,81.10
2017-11-12T15:10:38.676Z,80.80
2017-11-12T15:13:06.346Z,78.00
2017-11-12T15:18:02.262Z,78.80
2017-11-12T15:20:29.971Z,69.30
2017-11-12T15:22:57.603Z,70.40
2017-11-12T15:25:26.041Z,70.30
2017-11-12T15:27:53.745Z,65.60
2017-11-12T15:30:21.364Z,63.00
2017-11-12T15:32:49.007Z,56.60
2017-11-12T15:35:16.712Z,58.50
2017-11-12T15:37:44.347Z,57.90
2017-11-12T15:40:11.969Z,58.40
2017-11-12T15:42:39.671Z,58.30
2017-11-12T15:45:07.297Z,55.50
2017-11-12T15:47:34.965Z,54.30
2017-11-12T15:50:02.681Z,55.70
2017-11-12T15:52:30.305Z,54.70
2017-11-12T15:54:57.941Z,54.00
2017-11-12T15:57:25.677Z,50.80
2017-11-12T15:59:53.308Z,49.40
2017-11-12T16:02:20.956Z,50.10
2017-11-12T16:04:48.647Z,53.60
2017-11-12T16:09:56.369Z,53.50
2017-11-12T16:12:23.997Z,52.40
2017-11-12T16:14:51.630Z,54.00
2017-11-12T16:17:19.337Z,54.50
2017-11-12T16:19:46.960Z,55.20
2017-11-12T16:22:15.449Z,51.20
2017-11-12T16:24:43.141Z,53.10
2017-11-12T16:27:10.769Z,53.30
2017-11-12T16:29:38.400Z,53.80
2017-11-12T16:32:06.111Z,55.10
2017-11-12T16:34:33.757Z,56.00
2017-11-12T16:37:01.380Z,53.40
2017-11-12T16:39:29.930Z,52.80
2017-11-12T16:41:57.555Z,53.90
2017-11-12T16:44:25.177Z,51.80
2017-11-12T16:46:52.859Z,52.90
2017-11-12T16:49:20.489Z,52.50
2017-11-12T16:51:48.203Z,52.40
2017-11-12T16:54:16.321Z,52.00
2017-11-12T16:56:43.952Z,56.70
2017-11-12T16:59:11.575Z,55.80
2017-11-12T17:01:39.261Z,57.90
2017-11-12T17:04:06.888Z,52.90
2017-11-12T17:06:34.518Z,52.60
2017-11-12T17:09:02.207Z,59.30
2017-11-12T17:11:29.837Z,62.10
2017-11-12T17:13:57.465Z,64.90
2017-11-12T17:16:25.161Z,65.40
2017-11-12T17:18:52.792Z,54.70
2017-11-12T17:21:21.238Z,52.80
2017-11-12T17:23:48.933Z,49.90
2017-11-12T17:26:16.576Z,52.60
2017-11-12T17:28:44.197Z,52.20
2017-11-12T17:31:11.894Z,54.10
2017-11-12T17:33:40.351Z,56.60
2017-11-12T17:38:48.002Z,62.20
2017-11-12T17:41:15.631Z,65.10
2017-11-12T17:43:43.254Z,67.80
2017-11-12T17:46:12.066Z,69.00
2017-11-12T17:48:41.735Z,68.00
2017-11-12T17:51:09.326Z,69.30
2017-11-12T17:53:37.016Z,71.00
2017-11-12T17:56:04.659Z,72.90
2017-11-12T17:58:32.278Z,73.10
2017-11-12T18:03:27.597Z,72.40
2017-11-12T18:05:55.226Z,74.20
2017-11-12T18:08:22.922Z,76.50
2017-11-12T18:10:50.587Z,73.40
2017-11-12T18:13:18.203Z,75.10
2017-11-12T18:15:45.900Z,76.40
2017-11-12T18:18:13.522Z,77.40
2017-11-12T18:20:42.009Z,77.90
2017-11-12T18:23:09.715Z,77.70
2017-11-12T18:25:37.332Z,77.10
2017-11-12T18:28:04.963Z,75.20
2017-11-12T18:30:32.665Z,72.00
2017-11-12T18:33:00.313Z,73.00
2017-11-12T18:35:28.003Z,71.20
2017-11-12T18:37:55.713Z,73.90
2017-11-12T18:40:24.163Z,71.60
2017-11-12T18:42:51.776Z,73.10
2017-11-12T18:47:58.581Z,74.60
2017-11-12T18:50:26.274Z,72.50
2017-11-12T18:52:53.922Z,73.60
2017-11-12T19:08:51.845Z,70.60
2017-11-12T19:11:19.618Z,70.40
2017-11-12T19:13:47.256Z,71.50
2017-11-12T19:16:14.984Z,71.40
2017-11-12T19:34:33.042Z,75.50
2017-11-12T19:37:00.747Z,72.90
2017-11-12T19:39:28.469Z,74.00
2017-11-12T19:41:56.073Z,74.00
2017-11-12T19:44:23.689Z,73.30
2017-11-12T19:46:51.390Z,75.20
2017-11-12T19:51:46.662Z,75.90
2017-11-12T19:54:14.473Z,75.50
2017-11-12T19:56:42.121Z,74.90
2017-11-12T19:59:09.776Z,73.30
2017-11-12T20:01:37.487Z,73.00
2017-11-12T20:04:05.156Z,72.90
2017-11-12T20:06:32.792Z,73.40
2017-11-12T20:09:00.956Z,72.90
2017-11-12T20:11:31.880Z,72.50
2017-11-12T20:16:26.090Z,73.60
2017-11-12T20:18:53.850Z,75.20
2017-11-12T20:21:21.464Z,75.90
2017-11-12T20:23:49.175Z,74.20
2017-11-12T20:26:16.859Z,74.10
2017-11-12T20:28:44.482Z,74.30
2017-11-12T20:31:12.343Z,73.80
2017-11-12T20:33:40.158Z,73.80
2017-11-12T20:36:10.808Z,73.30
2017-11-12T20:38:35.955Z,74.80
2017-11-12T20:41:03.908Z,73.80
2017-11-12T20:43:31.810Z,73.70
2017-11-12T20:53:34.340Z,76.20
2017-11-12T20:56:02.053Z,76.20
2017-11-12T20:58:29.771Z,75.60
2017-11-12T21:00:57.554Z,76.20
2017-11-12T21:03:25.216Z,77.70
2017-11-12T21:08:33.762Z,81.20
2017-11-12T21:11:01.643Z,81.60
2017-11-12T21:13:29.845Z,81.80
2017-11-12T21:15:57.682Z,82.30
2017-11-12T21:23:31.905Z,83.90
2017-11-12T21:25:59.895Z,85.10
2017-11-12T21:39:13.447Z,85.00
2017-11-12T21:41:41.088Z,83.90
2017-11-12T21:44:09.240Z,82.50
2017-11-12T21:46:36.934Z,82.70
2017-11-12T21:49:04.602Z,83.30
2017-11-12T21:51:32.238Z,81.90
2017-11-12T21:53:59.974Z,82.00
2017-11-12T21:56:27.594Z,82.20
2017-11-12T21:58:55.236Z,81.60
2017-11-12T22:01:22.932Z,81.60
2017-11-12T22:03:50.570Z,81.90
2017-11-12T22:06:18.583Z,82.50
2017-11-12T22:08:46.279Z,82.10
2017-11-12T22:11:13.905Z,81.90
2017-11-12T22:13:41.542Z,83.60
2017-11-12T22:18:36.885Z,82.50
2017-11-12T22:21:04.540Z,82.50
2017-11-12T22:25:59.866Z,81.80
2017-11-12T22:28:27.540Z,81.50
2017-11-12T22:30:55.220Z,83.70
2017-11-12T22:33:23.358Z,83.80
2017-11-12T22:35:50.979Z,81.40
2017-11-12T22:38:18.690Z,80.60
2017-11-12T22:40:46.355Z,81.60
2017-11-12T22:43:14.000Z,81.80
2017-11-12T22:45:41.740Z,80.30
2017-11-12T22:48:09.411Z,80.70
2017-11-12T22:50:37.020Z,80.10
2017-11-12T22:53:04.833Z,80.90
2017-11-12T23:00:42.684Z,80.00
2017-11-12T23:03:10.307Z,78.10
2017-11-12T23:05:43.133Z,77.40
2017-11-12T23:08:10.837Z,77.70
2017-11-12T23:10:39.609Z,76.10
2017-11-12T23:13:07.265Z,75.90
2017-11-12T23:15:34.970Z,76.40
2017-11-12T23:20:31.556Z,78.60
2017-11-12T23:23:00.090Z,78.00
2017-11-12T23:25:28.082Z,78.70
2017-11-12T23:27:56.995Z,79.00
2017-11-12T23:30:24.487Z,79.70
2017-11-12T23:32:52.109Z,78.70
2017-11-12T23:35:21.078Z,79.80
2017-11-12T23:37:48.676Z,79.40
2017-11-12T23:40:16.310Z,78.00
2017-11-12T23:42:43.921Z,77.10
2017-11-12T23:45:12.780Z,77.80
2017-11-12T23:47:40.816Z,78.30
2017-11-12T23:52:37.159Z,80.00
2017-11-12T23:55:04.824Z,80.00
2017-11-12T23:57:33.773Z,78.40
